Weather History for Crosby, ND

Change the Weather History Date:

Sunday, February 17, 2013

  Actual Average (KISN) Record (KISN)
Temperature  
Mean Temperature 25 °F 18 °F  
Max Temperature 33 °F 28 °F 57 °F (1981)
Min Temperature 15 °F 7 °F -34 °F (1936)
Degree Days  
Heating Degree Days 40 47  
Month to date heating degree days 849  
Since 1 July heating degree days 6270  
Cooling Degree Days 0 0  
Month to date cooling degree days 0  
Year to date cooling degree days 0  
Moisture  
Dew Point 26 °F    
Average Humidity 90    
Maximum Humidity 100    
Minimum Humidity 80    
Precipitation  
Precipitation 4.16 in 0.01 in 0.28 in (1950)
Month to date precipitation 0.21  
Year to date precipitation 0.80  
Sea Level Pressure  
Sea Level Pressure 29.53 in    
Wind  
Wind Speed 17 mph (West)    
Max Wind Speed 31 mph    
Max Gust Speed 37 mph    
Visibility 7 miles    
Events Rain , Snow    
T = Trace of Precipitation, MM = Missing Value Source: NWS Daily Summary

Daily Weather History Graph

Daily Weather History Graph

Search for Another Location

Airport:

Trip Planner

Search our weather history database for the weather conditions in past years. The results will help you decide how hot, cold, wet, or windy it might be!

Date:

Astronomy

Feb. 17, 2013 Rise Set
Actual Time 7:57 AM CST 6:17 PM CST
Civil Twilight 7:24 AM CST 6:50 PM CST
Nautical Twilight 6:48 AM CST 7:27 PM CST
Astronomical Twilight 6:11 AM CST 8:03 PM CST
Moon 11:11 AM CST (2/17) 1:55 AM CST (2/17)
Length of Visible Light 11h 25m
Length of Day
10h 20m
Waxing Crescent, 49% of the Moon is Illuminated
Feb 17
Waxing Crescent
Feb 17
First Quarter
Feb 25
Full
Mar 4
Last Quarter
Mar 11
New

Hourly Weather History & Observations

Time (CST) Temp. Windchill Dew Point Humidity Pressure Visibility Wind Dir Wind Speed Gust Speed Precip Events Conditions
12:15 AM 28.4 °F 16.6 °F 24.8 °F 86% 29.60 in 10.0 mi South 16.1 mph - N/A   Scattered Clouds
12:35 AM 28.4 °F 17.0 °F 26.6 °F 93% 29.59 in 10.0 mi South 15.0 mph - N/A   Mostly Cloudy
12:55 AM 28.4 °F 17.5 °F 26.6 °F 93% 29.58 in 10.0 mi South 13.8 mph - N/A   Mostly Cloudy
1:15 AM 30.2 °F 19.8 °F 26.6 °F 86% 29.57 in 10.0 mi South 13.8 mph - N/A   Partly Cloudy
1:35 AM 32.0 °F 21.6 °F 28.4 °F 87% 29.57 in 10.0 mi South 15.0 mph - N/A   Partly Cloudy
1:55 AM 32.0 °F 21.2 °F 28.4 °F 87% 29.56 in 10.0 mi SSW 16.1 mph 21.9 mph N/A   Clear
2:15 AM 30.2 °F 18.9 °F 26.6 °F 86% 29.54 in 10.0 mi SSW 16.1 mph - N/A   Clear
2:35 AM 30.2 °F 18.9 °F 26.6 °F 86% 29.53 in 10.0 mi SSW 16.1 mph - N/A   Partly Cloudy
2:55 AM 30.2 °F 18.1 °F 26.6 °F 86% 29.53 in 10.0 mi SSW 18.4 mph - N/A   Mostly Cloudy
3:15 AM 30.2 °F 18.5 °F 26.6 °F 86% 29.52 in 10.0 mi SSW 17.3 mph - N/A   Partly Cloudy
3:35 AM 30.2 °F 18.9 °F 26.6 °F 86% 29.51 in 10.0 mi SSW 16.1 mph - N/A   Clear
3:55 AM 30.2 °F 18.9 °F 26.6 °F 86% 29.50 in 10.0 mi SW 16.1 mph - N/A   Clear
4:15 AM 32.0 °F 21.2 °F 26.6 °F 80% 29.49 in 10.0 mi SSW 16.1 mph - N/A   Clear
4:35 AM 30.2 °F 19.8 °F 26.6 °F 86% 29.49 in 10.0 mi SSW 13.8 mph - N/A   Clear
4:55 AM 30.2 °F 18.9 °F 26.6 °F 86% 29.48 in 10.0 mi SSW 16.1 mph - N/A   Clear
5:15 AM 32.0 °F 21.2 °F 26.6 °F 80% 29.47 in 10.0 mi SSW 16.1 mph - N/A   Clear
5:35 AM 32.0 °F 21.6 °F 26.6 °F 80% 29.47 in 10.0 mi SW 15.0 mph - N/A   Clear
5:55 AM 32.0 °F 20.1 °F 28.4 °F 87% 29.46 in 10.0 mi WSW 19.6 mph - N/A   Clear
6:15 AM 33.8 °F 22.5 °F 28.4 °F 81% 29.45 in 10.0 mi WSW 19.6 mph - N/A   Clear
6:35 AM 32.0 °F 20.8 °F 26.6 °F 80% 29.45 in 10.0 mi WSW 17.3 mph - N/A   Clear
6:55 AM 28.4 °F 18.0 °F 24.8 °F 86% 29.45 in 10.0 mi South 12.7 mph - N/A   Clear
7:15 AM 30.2 °F 21.3 °F 26.6 °F 86% 29.45 in 10.0 mi South 10.4 mph - N/A   Clear
7:35 AM 28.4 °F 17.5 °F 26.6 °F 93% 29.45 in 10.0 mi SW 13.8 mph - N/A   Clear
7:55 AM 32.0 °F 23.0 °F 26.6 °F 80% 29.45 in 10.0 mi SW 11.5 mph - N/A   Clear
8:15 AM 32.0 °F 21.6 °F 28.4 °F 87% 29.46 in 10.0 mi WSW 15.0 mph - N/A   Clear
8:35 AM 32.0 °F 22.1 °F 28.4 °F 87% 29.46 in 10.0 mi West 13.8 mph - N/A   Clear
8:55 AM 32.0 °F 22.5 °F 28.4 °F 87% 29.45 in 10.0 mi West 12.7 mph - N/A   Partly Cloudy
9:15 AM 32.0 °F 22.5 °F 28.4 °F 87% 29.45 in 10.0 mi West 12.7 mph - N/A   Partly Cloudy
9:35 AM 32.0 °F 22.5 °F 26.6 °F 80% 29.44 in 10.0 mi West 12.7 mph - N/A   Partly Cloudy
9:55 AM 32.0 °F 20.8 °F 26.6 °F 80% 29.44 in 10.0 mi West 17.3 mph - N/A   Clear
10:15 AM 32.0 °F 22.5 °F 26.6 °F 80% 29.43 in 10.0 mi WSW 12.7 mph - N/A   Scattered Clouds
10:35 AM 32.0 °F 21.6 °F 26.6 °F 80% 29.43 in 10.0 mi West 15.0 mph - N/A   Partly Cloudy
10:55 AM 33.8 °F 23.5 °F 28.4 °F 81% 29.43 in 10.0 mi West 16.1 mph - N/A   Clear
11:15 AM 33.8 °F 23.2 °F 28.4 °F 81% 29.43 in 10.0 mi West 17.3 mph - N/A   Scattered Clouds
11:35 AM 33.8 °F 23.9 °F 28.4 °F 81% 29.43 in 10.0 mi West 15.0 mph - N/A   Mostly Cloudy
11:55 AM 33.8 °F 23.9 °F 28.4 °F 81% 29.45 in 10.0 mi West 15.0 mph - N/A   Mostly Cloudy
12:15 PM 32.0 °F 21.2 °F 30.2 °F 93% 29.44 in 10.0 mi WNW 16.1 mph - N/A   Mostly Cloudy
12:55 PM 32.0 °F 20.5 °F 30.2 °F 93% 29.45 in 10.0 mi WNW 18.4 mph - N/A   Mostly Cloudy
1:15 PM 32.0 °F 22.1 °F 28.4 °F 87% 29.45 in 10.0 mi NW 13.8 mph - N/A   Overcast
1:35 PM 32.0 °F 20.5 °F 28.4 °F 87% 29.44 in 10.0 mi WNW 18.4 mph - N/A   Overcast
1:55 PM 30.2 °F 19.3 °F 28.4 °F 93% 29.44 in 10.0 mi WNW 15.0 mph - N/A   Overcast
2:15 PM 30.2 °F 18.9 °F 28.4 °F 93% 29.44 in 10.0 mi NW 16.1 mph - N/A   Overcast
2:35 PM 30.2 °F 18.5 °F 28.4 °F 93% 29.45 in 10.0 mi NW 17.3 mph - N/A   Overcast
2:55 PM 28.4 °F 16.2 °F 26.6 °F 93% 29.46 in 10.0 mi NW 17.3 mph - N/A   Overcast
3:15 PM 30.2 °F 18.5 °F 28.4 °F 93% 29.47 in 9.0 mi NW 17.3 mph - N/A   Overcast
3:35 PM 30.2 °F 18.9 °F 28.4 °F 93% 29.48 in 10.0 mi NW 16.1 mph 20.7 mph N/A   Overcast
3:55 PM 30.2 °F 18.1 °F 28.4 °F 93% 29.48 in 10.0 mi NW 18.4 mph 21.9 mph N/A   Overcast
4:15 PM 30.2 °F 17.8 °F 28.4 °F 93% 29.49 in 8.0 mi NW 19.6 mph - N/A   Overcast
4:35 PM 30.2 °F 16.5 °F 30.2 °F 100% 29.49 in 1.5 mi NW 24.2 mph 28.8 mph 0.04 in Snow Light Snow
4:55 PM 30.2 °F 16.5 °F 30.2 °F 100% 29.50 in 0.5 mi NW 24.2 mph 28.8 mph 0.61 in Snow Snow
5:15 PM 30.2 °F 17.1 °F 30.2 °F 100% 29.51 in 0.2 mi NW 21.9 mph - 1.82 in Snow Heavy Snow
5:35 PM 30.2 °F 17.1 °F 30.2 °F 100% 29.52 in 0.5 mi NW 21.9 mph - 2.13 in Snow Snow
5:55 PM 30.2 °F 17.4 °F 30.2 °F 100% 29.53 in 0.5 mi NNW 20.7 mph - 2.70 in Snow Snow
6:15 PM 32.0 °F 19.8 °F 32.0 °F 100% 29.54 in 0.8 mi NNW 20.7 mph - 0.20 in Snow Light Snow
6:55 PM 28.4 °F 12.5 °F 28.4 °F 100% 29.57 in 2.5 mi NW 31.1 mph 36.8 mph 0.25 in Snow Light Snow
7:15 PM 24.8 °F 7.9 °F 24.8 °F 100% 29.58 in 1.5 mi NW 29.9 mph 35.7 mph 0.02 in Snow Light Snow
7:35 PM 24.8 °F 8.4 °F 24.8 °F 100% 29.60 in 1.2 mi NW 27.6 mph 36.8 mph 0.04 in   Overcast
7:55 PM 24.8 °F 8.7 °F 24.8 °F 100% 29.61 in 2.0 mi NNW 26.5 mph 29.9 mph 0.06 in Rain Light Freezing Rain
8:15 PM 23.0 °F 6.9 °F 21.2 °F 93% 29.64 in 2.0 mi North 24.2 mph 31.1 mph N/A Rain Light Freezing Rain
8:35 PM 21.2 °F 5.2 °F 19.4 °F 93% 29.66 in 2.0 mi North 21.9 mph 33.4 mph 0.02 in Rain Light Freezing Rain
8:55 PM 19.4 °F 2.8 °F 19.4 °F 100% 29.68 in 2.0 mi NNW 21.9 mph 28.8 mph 0.05 in Snow Light Snow
9:15 PM 19.4 °F 1.4 °F 19.4 °F 100% 29.69 in 1.5 mi NNW 26.5 mph 32.2 mph 0.02 in Rain Light Freezing Rain
9:35 PM 17.6 °F -1.9 °F 15.8 °F 93% 29.71 in 1.5 mi North 29.9 mph - 0.05 in Rain Light Freezing Rain
9:55 PM 17.6 °F -1.0 °F 15.8 °F 93% 29.73 in 1.8 mi North 26.5 mph 33.4 mph 0.06 in Snow Light Snow
10:15 PM 17.6 °F -1.0 °F 15.8 °F 93% 29.74 in 1.5 mi NNW 26.5 mph 31.1 mph 0.03 in Snow Light Snow
10:35 PM 17.6 °F -1.0 °F 15.8 °F 93% 29.75 in 1.8 mi North 26.5 mph 32.2 mph 0.10 in Snow Light Snow
10:55 PM 17.6 °F -1.0 °F 15.8 °F 93% 29.76 in 1.2 mi North 26.5 mph 34.5 mph 0.19 in Snow Light Snow
11:15 PM 17.6 °F -0.3 °F 15.8 °F 93% 29.78 in 1.5 mi North 24.2 mph 31.1 mph 0.05 in Snow Light Snow
11:35 PM 17.6 °F -0.6 °F 15.8 °F 93% 29.79 in 2.0 mi North 25.3 mph - 0.15 in Snow Light Snow
11:55 PM 15.8 °F -3.1 °F 14.0 °F 93% 29.80 in 1.8 mi North 25.3 mph 33.4 mph 0.24 in Snow Light Snow